createdAt,value
2018-09-05T00:00:48.810Z,19.40
2018-09-05T00:04:13.302Z,19.40
2018-09-05T00:07:37.964Z,19.40
2018-09-05T00:11:02.447Z,19.40
2018-09-05T00:14:26.924Z,19.30
2018-09-05T00:17:51.360Z,19.30
2018-09-05T00:21:16.036Z,19.30
2018-09-05T00:24:40.468Z,19.20
2018-09-05T00:28:04.919Z,19.20
2018-09-05T00:31:29.371Z,19.20
2018-09-05T00:34:53.832Z,19.10
2018-09-05T00:38:18.228Z,19.00
2018-09-05T00:41:42.640Z,19.00
2018-09-05T00:45:07.101Z,18.90
2018-09-05T00:48:31.572Z,18.90
2018-09-05T00:51:55.995Z,18.80
2018-09-05T00:55:20.383Z,18.60
2018-09-05T00:58:44.818Z,18.50
2018-09-05T01:02:09.259Z,18.40
2018-09-05T01:05:33.658Z,18.40
2018-09-05T01:08:58.119Z,18.30
2018-09-05T01:12:23.304Z,18.20
2018-09-05T01:15:47.763Z,18.20
2018-09-05T01:19:12.211Z,18.10
2018-09-05T01:22:36.698Z,18.00
2018-09-05T01:26:01.158Z,18.00
2018-09-05T01:29:25.548Z,18.00
2018-09-05T01:32:50.051Z,17.90
2018-09-05T01:36:17.536Z,17.90
2018-09-05T01:39:41.941Z,17.80
2018-09-05T01:43:06.425Z,17.80
2018-09-05T01:46:30.832Z,17.70
2018-09-05T01:49:55.273Z,17.70
2018-09-05T01:53:19.673Z,17.60
2018-09-05T01:56:44.342Z,17.60
2018-09-05T02:00:12.904Z,17.60
2018-09-05T02:03:37.323Z,17.50
2018-09-05T02:07:01.750Z,17.50
2018-09-05T02:10:26.175Z,17.50
2018-09-05T02:13:50.609Z,17.50
2018-09-05T02:17:15.179Z,17.40
2018-09-05T02:20:39.593Z,17.40
2018-09-05T02:24:04.418Z,17.40
2018-09-05T02:27:28.852Z,17.40
2018-09-05T02:30:53.253Z,17.30
2018-09-05T02:34:17.665Z,17.30
2018-09-05T02:37:47.422Z,17.30
2018-09-05T02:41:11.848Z,17.30
2018-09-05T02:44:36.305Z,17.20
2018-09-05T02:48:00.811Z,17.20
2018-09-05T02:51:25.247Z,17.20
2018-09-05T02:54:49.675Z,17.20
2018-09-05T02:58:14.086Z,17.30
2018-09-05T03:01:38.540Z,17.30
2018-09-05T03:05:02.952Z,17.30
2018-09-05T03:08:27.488Z,17.30
2018-09-05T03:11:52.038Z,17.40
2018-09-05T03:15:16.488Z,17.40
2018-09-05T03:18:40.998Z,17.40
2018-09-05T03:22:05.435Z,17.40
2018-09-05T03:25:29.877Z,17.50
2018-09-05T03:28:54.302Z,17.50
2018-09-05T03:32:18.901Z,17.50
2018-09-05T03:35:43.177Z,17.50
2018-09-05T03:39:10.105Z,17.50
2018-09-05T03:42:34.598Z,17.60
2018-09-05T03:45:59.023Z,17.50
2018-09-05T03:49:23.453Z,17.50
2018-09-05T03:52:47.940Z,17.50
2018-09-05T03:56:12.352Z,17.60
2018-09-05T03:59:36.800Z,17.50
2018-09-05T04:03:02.076Z,17.50
2018-09-05T04:06:26.486Z,17.50
2018-09-05T04:09:50.988Z,17.50
2018-09-05T04:13:15.402Z,17.50
2018-09-05T04:16:39.828Z,17.50
2018-09-05T04:20:04.277Z,17.50
2018-09-05T04:23:32.778Z,17.50
2018-09-05T04:26:57.270Z,17.60
2018-09-05T04:30:21.775Z,17.50
2018-09-05T04:33:46.193Z,17.50
2018-09-05T04:37:10.630Z,17.50
2018-09-05T04:40:35.097Z,17.50
2018-09-05T04:44:14.347Z,17.40
2018-09-05T04:47:38.753Z,17.50
2018-09-05T04:51:03.166Z,17.40
2018-09-05T04:54:27.573Z,17.40
2018-09-05T04:57:52.040Z,17.40
2018-09-05T05:01:16.464Z,17.40
2018-09-05T05:04:40.889Z,17.40
2018-09-05T05:08:05.267Z,17.40
2018-09-05T05:11:29.917Z,17.40
2018-09-05T05:14:54.345Z,17.40
2018-09-05T05:18:18.745Z,17.40
2018-09-05T05:21:43.272Z,17.50
2018-09-05T05:25:08.066Z,17.50
2018-09-05T05:28:32.595Z,17.50
2018-09-05T05:31:57.011Z,17.60
2018-09-05T05:35:21.452Z,17.60
2018-09-05T05:38:46.439Z,17.60
2018-09-05T05:42:10.878Z,17.70
2018-09-05T05:45:35.324Z,17.70
2018-09-05T05:48:59.734Z,17.80
2018-09-05T05:52:24.148Z,17.90
2018-09-05T05:55:48.614Z,18.00
2018-09-05T05:59:13.032Z,18.00
2018-09-05T06:02:37.438Z,18.10
2018-09-05T06:06:01.904Z,18.20
2018-09-05T06:09:26.310Z,18.30
2018-09-05T06:12:50.748Z,18.40
2018-09-05T06:16:15.253Z,18.60
2018-09-05T06:19:39.727Z,18.60
2018-09-05T06:23:04.187Z,18.70
2018-09-05T06:26:28.603Z,18.80
2018-09-05T06:29:53.064Z,18.90
2018-09-05T06:33:17.502Z,19.00
2018-09-05T06:36:41.947Z,19.10
2018-09-05T06:40:06.780Z,19.30
2018-09-05T06:43:31.217Z,19.40
2018-09-05T06:46:55.632Z,19.50
2018-09-05T06:50:20.040Z,19.60
2018-09-05T06:53:44.448Z,19.70
2018-09-05T06:57:08.900Z,19.70
2018-09-05T07:00:33.379Z,19.80
2018-09-05T07:04:00.896Z,19.90
2018-09-05T07:07:51.107Z,20.00
2018-09-05T07:11:15.581Z,20.20
2018-09-05T07:14:40.959Z,20.30
2018-09-05T07:18:05.406Z,20.40
2018-09-05T07:21:29.993Z,20.50
2018-09-05T07:24:54.376Z,20.70
2018-09-05T07:28:18.837Z,20.80
2018-09-05T07:31:43.326Z,21.00
2018-09-05T07:35:07.742Z,21.10
2018-09-05T07:38:32.268Z,21.30
2018-09-05T07:41:56.699Z,21.50
2018-09-05T07:45:21.148Z,21.70
2018-09-05T07:48:45.641Z,21.90
2018-09-05T07:52:10.053Z,22.10
2018-09-05T07:55:34.499Z,22.20
2018-09-05T07:58:59.191Z,22.30
2018-09-05T08:02:23.612Z,22.40
2018-09-05T08:05:47.984Z,22.60
2018-09-05T08:09:12.984Z,22.70
2018-09-05T08:12:37.403Z,22.80
2018-09-05T08:16:01.789Z,22.90
2018-09-05T08:19:26.264Z,23.10
2018-09-05T08:22:50.724Z,23.30
2018-09-05T08:26:15.164Z,23.60
2018-09-05T08:29:42.577Z,23.70
2018-09-05T08:33:07.052Z,23.80
2018-09-05T08:36:31.702Z,24.10
2018-09-05T08:39:56.032Z,24.20
2018-09-05T08:43:20.578Z,24.50
2018-09-05T08:46:45.105Z,24.70
2018-09-05T08:50:09.555Z,25.00
2018-09-05T08:53:34.020Z,25.10
2018-09-05T08:56:58.662Z,25.20
2018-09-05T09:00:23.143Z,25.40
2018-09-05T09:03:47.588Z,25.50
2018-09-05T09:07:12.022Z,25.50
2018-09-05T09:10:36.456Z,25.60
2018-09-05T09:14:00.918Z,25.70
2018-09-05T09:17:25.388Z,25.80
2018-09-05T09:20:50.138Z,25.90
2018-09-05T09:24:14.576Z,25.70
2018-09-05T09:27:39.095Z,25.60
2018-09-05T09:31:03.515Z,25.80
2018-09-05T09:34:27.954Z,26.00
2018-09-05T09:37:52.401Z,26.30
2018-09-05T09:41:16.907Z,26.40
2018-09-05T09:44:42.348Z,26.70
2018-09-05T09:48:07.073Z,26.90
2018-09-05T09:51:31.482Z,27.10
2018-09-05T09:54:55.928Z,27.20
2018-09-05T09:58:20.615Z,27.40
2018-09-05T10:01:50.380Z,27.70
2018-09-05T10:05:19.934Z,28.00
2018-09-05T10:08:49.439Z,28.30
2018-09-05T10:12:19.139Z,28.80
2018-09-05T10:15:48.717Z,29.40
2018-09-05T10:19:13.543Z,29.30
2018-09-05T10:22:38.060Z,29.40
2018-09-05T10:26:02.460Z,30.10
2018-09-05T10:29:26.923Z,30.10
2018-09-05T10:32:51.371Z,30.70
2018-09-05T10:36:15.795Z,31.10
2018-09-05T10:39:40.188Z,31.20
2018-09-05T10:43:04.960Z,31.10
2018-09-05T10:46:29.411Z,30.70
2018-09-05T10:49:53.850Z,30.40
2018-09-05T10:53:18.296Z,30.10
2018-09-05T10:56:42.742Z,29.60
2018-09-05T11:00:07.190Z,29.70
2018-09-05T11:03:31.708Z,29.70
2018-09-05T11:06:56.618Z,29.90
2018-09-05T11:10:21.079Z,30.30
2018-09-05T11:13:45.590Z,30.70
2018-09-05T11:17:10.052Z,31.10
2018-09-05T11:20:34.500Z,31.50
2018-09-05T11:23:58.959Z,31.50
2018-09-05T11:27:23.403Z,31.40
2018-09-05T11:30:47.851Z,31.60
2018-09-05T11:34:12.312Z,31.70
2018-09-05T11:37:36.803Z,31.60
2018-09-05T11:41:01.272Z,31.60
2018-09-05T11:44:25.693Z,31.50
2018-09-05T11:47:50.121Z,31.80
2018-09-05T11:51:14.560Z,32.10
2018-09-05T11:54:39.002Z,32.10
2018-09-05T11:58:03.443Z,32.20
2018-09-05T12:01:27.862Z,32.30
2018-09-05T12:04:52.338Z,32.20
2018-09-05T12:08:16.783Z,32.00
2018-09-05T12:11:41.291Z,31.60
2018-09-05T12:15:05.666Z,31.60
2018-09-05T12:18:30.117Z,31.20
2018-09-05T12:21:54.541Z,31.10
2018-09-05T12:25:19.014Z,30.80
2018-09-05T12:28:43.488Z,30.80
2018-09-05T12:32:07.933Z,30.70
2018-09-05T12:35:32.354Z,30.70
2018-09-05T12:38:56.874Z,31.10
2018-09-05T12:42:21.287Z,31.30
2018-09-05T12:45:45.778Z,31.60
2018-09-05T12:49:10.245Z,31.90
2018-09-05T12:52:34.660Z,32.30
2018-09-05T12:55:59.091Z,32.70
2018-09-05T12:59:23.580Z,33.20
2018-09-05T13:02:48.034Z,33.40
2018-09-05T13:06:12.447Z,34.10
2018-09-05T13:09:36.846Z,34.90
2018-09-05T13:13:01.287Z,36.10
2018-09-05T13:16:25.697Z,36.80
2018-09-05T13:19:50.171Z,37.60
2018-09-05T13:23:14.572Z,38.70
2018-09-05T13:26:39.126Z,39.50
2018-09-05T13:30:03.590Z,39.80
2018-09-05T13:33:27.989Z,38.60
2018-09-05T13:36:52.455Z,37.70
2018-09-05T13:40:16.949Z,37.70
2018-09-05T13:43:41.388Z,37.40
2018-09-05T13:47:05.893Z,37.80
2018-09-05T13:50:30.411Z,37.40
2018-09-05T13:53:54.822Z,38.60
2018-09-05T13:57:19.244Z,39.70
2018-09-05T14:00:43.669Z,40.90
2018-09-05T14:04:08.586Z,41.40
2018-09-05T14:07:33.024Z,41.30
2018-09-05T14:10:57.469Z,41.60
2018-09-05T14:14:21.965Z,42.00
2018-09-05T14:17:46.364Z,42.30
2018-09-05T14:21:10.779Z,42.10
2018-09-05T14:24:35.244Z,41.60
2018-09-05T14:27:59.686Z,40.80
2018-09-05T14:31:24.099Z,39.40
2018-09-05T14:34:48.594Z,38.10
2018-09-05T14:38:13.297Z,36.80
2018-09-05T14:45:30.106Z,34.90
2018-09-05T14:48:54.554Z,34.30
2018-09-05T14:52:18.976Z,34.30
2018-09-05T14:55:43.480Z,34.60
2018-09-05T14:59:07.987Z,34.90
2018-09-05T15:02:32.408Z,34.60
2018-09-05T15:05:56.818Z,34.20
2018-09-05T15:09:21.284Z,33.90
2018-09-05T15:12:46.445Z,33.80
2018-09-05T15:16:10.939Z,33.90
2018-09-05T15:19:36.311Z,33.70
2018-09-05T15:23:00.735Z,34.10
2018-09-05T15:26:25.143Z,35.40
2018-09-05T15:29:49.592Z,37.80
2018-09-05T15:33:14.023Z,39.50
2018-09-05T15:36:38.441Z,40.80
2018-09-05T15:40:02.908Z,39.90
2018-09-05T15:43:27.331Z,38.40
2018-09-05T15:46:51.773Z,37.40
2018-09-05T15:50:16.147Z,37.60
2018-09-05T15:53:40.564Z,38.70
2018-09-05T15:57:05.049Z,39.00
2018-09-05T16:00:29.491Z,37.60
2018-09-05T16:03:53.915Z,36.10
2018-09-05T16:07:18.360Z,35.20
2018-09-05T16:10:42.768Z,36.20
2018-09-05T16:14:07.325Z,36.70
2018-09-05T16:17:31.766Z,36.50
2018-09-05T16:20:56.158Z,35.30
2018-09-05T16:24:20.546Z,34.30
2018-09-05T16:27:44.976Z,34.30
2018-09-05T16:31:09.452Z,34.70
2018-09-05T16:34:33.842Z,33.60
2018-09-05T16:37:58.272Z,32.50
2018-09-05T16:41:22.763Z,31.70
2018-09-05T16:44:47.194Z,31.10
2018-09-05T16:48:11.619Z,30.60
2018-09-05T16:51:36.139Z,30.30
2018-09-05T16:55:00.630Z,30.00
2018-09-05T16:58:25.210Z,29.90
2018-09-05T17:01:49.718Z,29.90
2018-09-05T17:05:14.222Z,29.90
2018-09-05T17:08:38.673Z,29.40
2018-09-05T17:12:03.106Z,29.70
2018-09-05T17:15:27.513Z,29.70
2018-09-05T17:18:52.089Z,29.60
2018-09-05T17:22:16.547Z,29.10
2018-09-05T17:25:45.378Z,28.60
2018-09-05T17:29:10.847Z,28.10
2018-09-05T17:32:35.269Z,27.80
2018-09-05T17:35:59.737Z,27.50
2018-09-05T17:39:24.161Z,27.30
2018-09-05T17:42:48.564Z,27.10
2018-09-05T17:46:12.997Z,26.90
2018-09-05T17:49:37.428Z,26.70
2018-09-05T17:53:01.847Z,26.50
2018-09-05T17:56:26.285Z,26.30
2018-09-05T17:59:50.702Z,26.30
2018-09-05T18:03:15.180Z,26.10
2018-09-05T18:06:39.683Z,26.00
2018-09-05T18:10:04.480Z,25.90
2018-09-05T18:13:29.791Z,25.80
2018-09-05T18:16:54.280Z,25.70
2018-09-05T18:20:18.682Z,25.50
2018-09-05T18:23:43.151Z,25.40
2018-09-05T18:27:07.624Z,25.30
2018-09-05T18:30:32.025Z,25.20
2018-09-05T18:33:56.553Z,25.00
2018-09-05T18:37:20.914Z,24.90
2018-09-05T18:40:45.383Z,24.70
2018-09-05T18:44:09.817Z,24.60
2018-09-05T18:47:34.354Z,24.50
2018-09-05T18:50:58.804Z,24.30
2018-09-05T18:54:23.258Z,24.20
2018-09-05T18:57:47.772Z,24.10
2018-09-05T19:01:12.245Z,24.00
2018-09-05T19:04:36.765Z,23.90
2018-09-05T19:08:01.209Z,23.90
2018-09-05T19:11:25.656Z,23.80
2018-09-05T19:14:50.060Z,23.70
2018-09-05T19:18:14.499Z,23.70
2018-09-05T19:21:38.923Z,23.60
2018-09-05T19:25:03.380Z,23.50
2018-09-05T19:28:27.794Z,23.40
2018-09-05T19:31:52.214Z,23.30
2018-09-05T19:35:16.644Z,23.20
2018-09-05T19:38:41.085Z,23.10
2018-09-05T19:42:05.525Z,23.10
2018-09-05T19:45:30.007Z,23.00
2018-09-05T19:48:54.390Z,23.00
2018-09-05T19:52:18.816Z,22.90
2018-09-05T19:55:43.331Z,22.90
2018-09-05T19:59:07.787Z,22.80
2018-09-05T20:02:32.182Z,22.80
2018-09-05T20:05:56.614Z,22.70
2018-09-05T20:09:21.153Z,22.60
2018-09-05T20:12:45.588Z,22.60
2018-09-05T20:16:09.977Z,22.50
2018-09-05T20:19:35.067Z,22.50
2018-09-05T20:23:00.441Z,22.40
2018-09-05T20:26:24.943Z,22.40
2018-09-05T20:29:49.372Z,22.30
2018-09-05T20:33:13.806Z,22.30
2018-09-05T20:36:38.252Z,22.20
2018-09-05T20:40:02.798Z,22.20
2018-09-05T20:43:27.273Z,22.20
2018-09-05T20:46:51.756Z,22.20
2018-09-05T20:50:18.688Z,22.20
2018-09-05T20:53:43.116Z,22.30
2018-09-05T20:57:07.653Z,22.30
2018-09-05T21:00:32.161Z,22.30
2018-09-05T21:03:56.558Z,22.30
2018-09-05T21:07:21.026Z,22.30
2018-09-05T21:10:45.529Z,22.30
2018-09-05T21:14:09.937Z,22.30
2018-09-05T21:17:34.493Z,22.30
2018-09-05T21:20:59.872Z,22.20
2018-09-05T21:24:24.321Z,22.30
2018-09-05T21:27:48.817Z,22.30
2018-09-05T21:31:13.247Z,22.30
2018-09-05T21:34:37.740Z,22.20
2018-09-05T21:38:02.174Z,22.20
2018-09-05T21:41:26.677Z,22.20
2018-09-05T21:44:51.080Z,22.20
2018-09-05T21:48:15.564Z,22.20
2018-09-05T21:51:40.035Z,22.20
2018-09-05T21:55:04.521Z,22.10
2018-09-05T21:58:28.953Z,22.10
2018-09-05T22:01:53.425Z,22.10
2018-09-05T22:05:17.877Z,22.10
2018-09-05T22:08:42.323Z,22.10
2018-09-05T22:12:06.780Z,22.00
2018-09-05T22:15:35.740Z,22.10
2018-09-05T22:19:00.161Z,22.10
2018-09-05T22:22:24.607Z,22.00
2018-09-05T22:25:48.972Z,22.00
2018-09-05T22:29:13.373Z,21.90
2018-09-05T22:32:37.829Z,21.90
2018-09-05T22:36:02.276Z,21.80
2018-09-05T22:39:26.713Z,21.80
2018-09-05T22:43:08.189Z,21.70
2018-09-05T22:46:49.620Z,21.70
2018-09-05T22:53:45.437Z,21.70
2018-09-05T23:00:02.006Z,21.70
2018-09-05T23:03:44.121Z,21.70
2018-09-05T23:07:28.112Z,21.60
2018-09-05T23:11:09.661Z,21.60
2018-09-05T23:14:52.688Z,21.50
2018-09-05T23:18:34.045Z,21.30
2018-09-05T23:21:58.477Z,21.30
2018-09-05T23:25:22.930Z,21.20
2018-09-05T23:28:47.348Z,21.10
2018-09-05T23:32:11.790Z,21.10
2018-09-05T23:35:36.211Z,21.00
2018-09-05T23:39:00.687Z,21.00
2018-09-05T23:42:25.121Z,21.00
2018-09-05T23:45:49.604Z,21.00
2018-09-05T23:49:14.074Z,21.10
2018-09-05T23:52:38.565Z,21.10
2018-09-05T23:56:03.118Z,21.10
2018-09-05T23:59:27.531Z,21.10
